sensor_id;sensor_type;location;lat;lon;timestamp;P1;durP1;ratioP1;P2;durP2;ratioP2
6394;SDS011;3230;42.588;23.358;2022-12-24T00:00:31;30.08;;;7.75;;
6394;SDS011;3230;42.588;23.358;2022-12-24T00:02:57;17.47;;;4.57;;
6394;SDS011;3230;42.588;23.358;2022-12-24T00:05:22;4.33;;;2.03;;
6394;SDS011;3230;42.588;23.358;2022-12-24T00:07:48;3.53;;;1.80;;
6394;SDS011;3230;42.588;23.358;2022-12-24T00:10:13;3.13;;;2.00;;
6394;SDS011;3230;42.588;23.358;2022-12-24T00:12:39;4.33;;;3.07;;
6394;SDS011;3230;42.588;23.358;2022-12-24T00:15:05;12.53;;;7.17;;
6394;SDS011;3230;42.588;23.358;2022-12-24T00:17:31;9.95;;;5.95;;
6394;SDS011;3230;42.588;23.358;2022-12-24T00:19:57;11.20;;;6.57;;
6394;SDS011;3230;42.588;23.358;2022-12-24T00:22:22;8.23;;;5.33;;
6394;SDS011;3230;42.588;23.358;2022-12-24T00:24:49;11.40;;;5.93;;
6394;SDS011;3230;42.588;23.358;2022-12-24T00:27:15;7.60;;;5.53;;
6394;SDS011;3230;42.588;23.358;2022-12-24T00:29:40;10.20;;;5.20;;
6394;SDS011;3230;42.588;23.358;2022-12-24T00:32:06;9.47;;;5.50;;
6394;SDS011;3230;42.588;23.358;2022-12-24T00:34:34;9.20;;;5.53;;
6394;SDS011;3230;42.588;23.358;2022-12-24T00:37:00;5.95;;;3.95;;
6394;SDS011;3230;42.588;23.358;2022-12-24T00:39:26;11.10;;;9.90;;
6394;SDS011;3230;42.588;23.358;2022-12-24T00:41:51;6.03;;;4.40;;
6394;SDS011;3230;42.588;23.358;2022-12-24T00:44:16;4.80;;;3.30;;
6394;SDS011;3230;42.588;23.358;2022-12-24T00:46:42;6.10;;;3.47;;
6394;SDS011;3230;42.588;23.358;2022-12-24T00:49:07;6.33;;;3.33;;
6394;SDS011;3230;42.588;23.358;2022-12-24T00:51:34;4.50;;;3.40;;
6394;SDS011;3230;42.588;23.358;2022-12-24T00:54:00;7.55;;;4.15;;
6394;SDS011;3230;42.588;23.358;2022-12-24T00:56:25;7.77;;;4.73;;
6394;SDS011;3230;42.588;23.358;2022-12-24T00:58:52;9.52;;;5.22;;
6394;SDS011;3230;42.588;23.358;2022-12-24T01:01:17;7.90;;;3.60;;
6394;SDS011;3230;42.588;23.358;2022-12-24T01:03:43;18.40;;;7.40;;
6394;SDS011;3230;42.588;23.358;2022-12-24T01:06:13;15.80;;;7.27;;
6394;SDS011;3230;42.588;23.358;2022-12-24T01:08:43;11.32;;;5.95;;
6394;SDS011;3230;42.588;23.358;2022-12-24T01:11:09;9.97;;;4.17;;
6394;SDS011;3230;42.588;23.358;2022-12-24T01:13:35;5.20;;;2.95;;
6394;SDS011;3230;42.588;23.358;2022-12-24T01:16:01;3.50;;;2.00;;
6394;SDS011;3230;42.588;23.358;2022-12-24T01:18:27;2.15;;;1.80;;
6394;SDS011;3230;42.588;23.358;2022-12-24T01:20:54;1.60;;;1.50;;
6394;SDS011;3230;42.588;23.358;2022-12-24T01:23:21;1.40;;;1.30;;
6394;SDS011;3230;42.588;23.358;2022-12-24T01:25:46;3.50;;;1.83;;
6394;SDS011;3230;42.588;23.358;2022-12-24T01:28:11;4.30;;;2.07;;
6394;SDS011;3230;42.588;23.358;2022-12-24T01:30:37;3.27;;;1.90;;
6394;SDS011;3230;42.588;23.358;2022-12-24T01:33:04;1.80;;;1.50;;
6394;SDS011;3230;42.588;23.358;2022-12-24T01:35:30;8.30;;;4.97;;
6394;SDS011;3230;42.588;23.358;2022-12-24T01:37:55;15.53;;;9.43;;
6394;SDS011;3230;42.588;23.358;2022-12-24T01:40:21;8.30;;;4.97;;
6394;SDS011;3230;42.588;23.358;2022-12-24T01:43:09;6.45;;;3.90;;
6394;SDS011;3230;42.588;23.358;2022-12-24T01:48:21;2.40;;;2.10;;
6394;SDS011;3230;42.588;23.358;2022-12-24T01:53:45;6.68;;;3.47;;
6394;SDS011;3230;42.588;23.358;2022-12-24T01:56:16;6.93;;;3.50;;
6394;SDS011;3230;42.588;23.358;2022-12-24T01:58:44;9.07;;;3.78;;
6394;SDS011;3230;42.588;23.358;2022-12-24T02:01:15;4.03;;;3.10;;
6394;SDS011;3230;42.588;23.358;2022-12-24T02:03:41;5.10;;;2.75;;
6394;SDS011;3230;42.588;23.358;2022-12-24T02:06:07;7.13;;;3.60;;
6394;SDS011;3230;42.588;23.358;2022-12-24T02:08:35;9.55;;;4.15;;
6394;SDS011;3230;42.588;23.358;2022-12-24T02:13:35;7.95;;;4.15;;
6394;SDS011;3230;42.588;23.358;2022-12-24T02:24:01;162.43;;;78.00;;
6394;SDS011;3230;42.588;23.358;2022-12-24T02:32:28;6.15;;;3.55;;
6394;SDS011;3230;42.588;23.358;2022-12-24T02:37:51;4.00;;;1.75;;
6394;SDS011;3230;42.588;23.358;2022-12-24T02:40:28;3.55;;;1.58;;
6394;SDS011;3230;42.588;23.358;2022-12-24T02:43:01;1.98;;;1.83;;
6394;SDS011;3230;42.588;23.358;2022-12-24T02:45:31;2.75;;;1.73;;
6394;SDS011;3230;42.588;23.358;2022-12-24T02:47:59;4.20;;;1.65;;
6394;SDS011;3230;42.588;23.358;2022-12-24T02:50:25;1.77;;;1.10;;
6394;SDS011;3230;42.588;23.358;2022-12-24T02:52:51;3.00;;;1.60;;
6394;SDS011;3230;42.588;23.358;2022-12-24T02:55:25;4.50;;;1.90;;
6394;SDS011;3230;42.588;23.358;2022-12-24T03:00:20;2.87;;;2.00;;
6394;SDS011;3230;42.588;23.358;2022-12-24T03:02:53;3.30;;;2.15;;
6394;SDS011;3230;42.588;23.358;2022-12-24T03:05:26;4.18;;;2.53;;
6394;SDS011;3230;42.588;23.358;2022-12-24T03:13:16;8.57;;;2.00;;
6394;SDS011;3230;42.588;23.358;2022-12-24T03:15:43;2.72;;;1.50;;
6394;SDS011;3230;42.588;23.358;2022-12-24T03:18:11;3.35;;;1.10;;
6394;SDS011;3230;42.588;23.358;2022-12-24T03:20:40;4.32;;;1.85;;
6394;SDS011;3230;42.588;23.358;2022-12-24T03:23:08;12.25;;;7.22;;
6394;SDS011;3230;42.588;23.358;2022-12-24T03:25:34;6.00;;;3.00;;
6394;SDS011;3230;42.588;23.358;2022-12-24T03:28:03;6.05;;;3.40;;
6394;SDS011;3230;42.588;23.358;2022-12-24T03:30:30;6.53;;;3.95;;
6394;SDS011;3230;42.588;23.358;2022-12-24T03:32:56;7.07;;;4.13;;
6394;SDS011;3230;42.588;23.358;2022-12-24T03:35:22;7.60;;;3.90;;
6394;SDS011;3230;42.588;23.358;2022-12-24T03:37:47;8.73;;;3.20;;
6394;SDS011;3230;42.588;23.358;2022-12-24T03:40:13;7.13;;;4.40;;
6394;SDS011;3230;42.588;23.358;2022-12-24T03:42:38;11.37;;;7.30;;
6394;SDS011;3230;42.588;23.358;2022-12-24T03:45:04;12.60;;;7.93;;
6394;SDS011;3230;42.588;23.358;2022-12-24T03:47:30;7.30;;;3.42;;
6394;SDS011;3230;42.588;23.358;2022-12-24T03:49:55;7.13;;;3.73;;
6394;SDS011;3230;42.588;23.358;2022-12-24T03:52:21;7.17;;;3.90;;
6394;SDS011;3230;42.588;23.358;2022-12-24T03:54:46;7.43;;;4.10;;
6394;SDS011;3230;42.588;23.358;2022-12-24T03:57:11;7.33;;;3.47;;
6394;SDS011;3230;42.588;23.358;2022-12-24T03:59:37;4.73;;;2.97;;
6394;SDS011;3230;42.588;23.358;2022-12-24T04:02:02;5.67;;;3.73;;
6394;SDS011;3230;42.588;23.358;2022-12-24T04:04:28;4.63;;;2.90;;
6394;SDS011;3230;42.588;23.358;2022-12-24T04:06:53;4.73;;;2.93;;
6394;SDS011;3230;42.588;23.358;2022-12-24T04:09:18;5.47;;;2.90;;
6394;SDS011;3230;42.588;23.358;2022-12-24T04:11:44;7.07;;;5.67;;
6394;SDS011;3230;42.588;23.358;2022-12-24T04:14:09;14.70;;;10.37;;
6394;SDS011;3230;42.588;23.358;2022-12-24T04:16:34;21.10;;;13.30;;
6394;SDS011;3230;42.588;23.358;2022-12-24T04:19:00;15.27;;;10.63;;
6394;SDS011;3230;42.588;23.358;2022-12-24T04:21:25;19.83;;;12.90;;
6394;SDS011;3230;42.588;23.358;2022-12-24T04:23:51;21.97;;;12.90;;
6394;SDS011;3230;42.588;23.358;2022-12-24T04:26:16;11.77;;;7.77;;
6394;SDS011;3230;42.588;23.358;2022-12-24T04:28:42;16.40;;;7.13;;
6394;SDS011;3230;42.588;23.358;2022-12-24T04:31:09;11.80;;;7.27;;
6394;SDS011;3230;42.588;23.358;2022-12-24T04:33:36;11.85;;;7.80;;
6394;SDS011;3230;42.588;23.358;2022-12-24T04:36:03;13.77;;;7.30;;
6394;SDS011;3230;42.588;23.358;2022-12-24T04:38:29;9.40;;;6.53;;
6394;SDS011;3230;42.588;23.358;2022-12-24T04:43:25;5.55;;;4.28;;
6394;SDS011;3230;42.588;23.358;2022-12-24T04:45:51;7.70;;;3.97;;
6394;SDS011;3230;42.588;23.358;2022-12-24T04:48:17;14.50;;;5.47;;
6394;SDS011;3230;42.588;23.358;2022-12-24T04:50:42;9.40;;;5.20;;
6394;SDS011;3230;42.588;23.358;2022-12-24T04:53:08;8.20;;;4.90;;
6394;SDS011;3230;42.588;23.358;2022-12-24T04:55:33;8.83;;;4.93;;
6394;SDS011;3230;42.588;23.358;2022-12-24T04:57:58;10.13;;;5.50;;
6394;SDS011;3230;42.588;23.358;2022-12-24T05:00:24;9.30;;;4.77;;
6394;SDS011;3230;42.588;23.358;2022-12-24T05:02:49;9.10;;;4.60;;
6394;SDS011;3230;42.588;23.358;2022-12-24T05:05:14;9.40;;;5.10;;
6394;SDS011;3230;42.588;23.358;2022-12-24T05:07:40;10.43;;;5.43;;
6394;SDS011;3230;42.588;23.358;2022-12-24T05:10:05;6.97;;;4.10;;
6394;SDS011;3230;42.588;23.358;2022-12-24T05:12:31;5.95;;;3.90;;
6394;SDS011;3230;42.588;23.358;2022-12-24T05:14:57;5.40;;;3.20;;
6394;SDS011;3230;42.588;23.358;2022-12-24T05:17:22;3.70;;;2.90;;
6394;SDS011;3230;42.588;23.358;2022-12-24T05:19:48;4.50;;;3.10;;
6394;SDS011;3230;42.588;23.358;2022-12-24T05:22:13;6.47;;;3.30;;
6394;SDS011;3230;42.588;23.358;2022-12-24T05:24:57;6.03;;;3.45;;
6394;SDS011;3230;42.588;23.358;2022-12-24T05:27:41;7.55;;;4.70;;
6394;SDS011;3230;42.588;23.358;2022-12-24T05:30:06;6.77;;;4.53;;
6394;SDS011;3230;42.588;23.358;2022-12-24T05:32:32;10.02;;;4.88;;
6394;SDS011;3230;42.588;23.358;2022-12-24T05:34:58;8.30;;;5.37;;
6394;SDS011;3230;42.588;23.358;2022-12-24T05:37:23;8.33;;;4.27;;
6394;SDS011;3230;42.588;23.358;2022-12-24T05:39:48;6.87;;;3.97;;
6394;SDS011;3230;42.588;23.358;2022-12-24T05:42:14;6.87;;;4.27;;
6394;SDS011;3230;42.588;23.358;2022-12-24T05:44:39;10.73;;;5.83;;
6394;SDS011;3230;42.588;23.358;2022-12-24T05:47:04;18.53;;;9.40;;
6394;SDS011;3230;42.588;23.358;2022-12-24T05:49:30;21.10;;;9.23;;
6394;SDS011;3230;42.588;23.358;2022-12-24T05:51:55;9.37;;;5.10;;
6394;SDS011;3230;42.588;23.358;2022-12-24T05:54:21;14.97;;;10.20;;
6394;SDS011;3230;42.588;23.358;2022-12-24T05:56:46;12.70;;;7.90;;
6394;SDS011;3230;42.588;23.358;2022-12-24T05:59:11;8.60;;;5.90;;
6394;SDS011;3230;42.588;23.358;2022-12-24T06:01:37;8.10;;;5.80;;
6394;SDS011;3230;42.588;23.358;2022-12-24T06:04:02;7.37;;;4.50;;
6394;SDS011;3230;42.588;23.358;2022-12-24T06:06:28;7.50;;;4.30;;
6394;SDS011;3230;42.588;23.358;2022-12-24T06:08:54;4.33;;;2.83;;
6394;SDS011;3230;42.588;23.358;2022-12-24T06:11:23;18.40;;;6.13;;
6394;SDS011;3230;42.588;23.358;2022-12-24T06:13:51;3.80;;;2.97;;
6394;SDS011;3230;42.588;23.358;2022-12-24T06:16:17;15.38;;;7.13;;
6394;SDS011;3230;42.588;23.358;2022-12-24T06:18:43;24.55;;;8.57;;
6394;SDS011;3230;42.588;23.358;2022-12-24T06:21:09;10.10;;;4.83;;
6394;SDS011;3230;42.588;23.358;2022-12-24T06:23:35;21.60;;;8.37;;
6394;SDS011;3230;42.588;23.358;2022-12-24T06:26:02;17.60;;;8.68;;
6394;SDS011;3230;42.588;23.358;2022-12-24T06:28:30;21.83;;;7.22;;
6394;SDS011;3230;42.588;23.358;2022-12-24T06:30:57;35.72;;;15.40;;
6394;SDS011;3230;42.588;23.358;2022-12-24T06:33:23;38.88;;;14.75;;
6394;SDS011;3230;42.588;23.358;2022-12-24T06:35:48;19.53;;;8.80;;
6394;SDS011;3230;42.588;23.358;2022-12-24T06:38:14;28.10;;;12.80;;
6394;SDS011;3230;42.588;23.358;2022-12-24T06:40:40;12.68;;;5.82;;
6394;SDS011;3230;42.588;23.358;2022-12-24T06:43:07;8.38;;;4.70;;
6394;SDS011;3230;42.588;23.358;2022-12-24T06:45:33;4.13;;;3.03;;
6394;SDS011;3230;42.588;23.358;2022-12-24T06:47:58;5.10;;;3.70;;
6394;SDS011;3230;42.588;23.358;2022-12-24T06:50:24;6.35;;;3.05;;
6394;SDS011;3230;42.588;23.358;2022-12-24T06:52:50;4.10;;;2.80;;
6394;SDS011;3230;42.588;23.358;2022-12-24T06:55:15;4.83;;;3.77;;
6394;SDS011;3230;42.588;23.358;2022-12-24T06:57:40;31.73;;;15.67;;
6394;SDS011;3230;42.588;23.358;2022-12-24T07:00:08;37.03;;;19.97;;
6394;SDS011;3230;42.588;23.358;2022-12-24T07:02:38;38.72;;;18.17;;
6394;SDS011;3230;42.588;23.358;2022-12-24T07:05:08;45.08;;;21.23;;
6394;SDS011;3230;42.588;23.358;2022-12-24T07:07:35;54.65;;;27.08;;
6394;SDS011;3230;42.588;23.358;2022-12-24T07:10:01;43.78;;;22.25;;
6394;SDS011;3230;42.588;23.358;2022-12-24T07:12:27;27.52;;;14.23;;
6394;SDS011;3230;42.588;23.358;2022-12-24T07:14:53;24.60;;;11.50;;
6394;SDS011;3230;42.588;23.358;2022-12-24T07:17:18;20.23;;;9.53;;
6394;SDS011;3230;42.588;23.358;2022-12-24T07:19:43;24.83;;;11.50;;
6394;SDS011;3230;42.588;23.358;2022-12-24T07:25:43;26.08;;;12.88;;
6394;SDS011;3230;42.588;23.358;2022-12-24T07:28:08;40.05;;;19.95;;
6394;SDS011;3230;42.588;23.358;2022-12-24T07:30:34;37.40;;;17.73;;
6394;SDS011;3230;42.588;23.358;2022-12-24T07:32:59;43.80;;;20.70;;
6394;SDS011;3230;42.588;23.358;2022-12-24T07:35:25;30.60;;;15.73;;
6394;SDS011;3230;42.588;23.358;2022-12-24T07:37:50;26.90;;;12.80;;
6394;SDS011;3230;42.588;23.358;2022-12-24T07:40:15;26.00;;;13.10;;
6394;SDS011;3230;42.588;23.358;2022-12-24T07:42:41;31.27;;;14.17;;
6394;SDS011;3230;42.588;23.358;2022-12-24T07:45:06;43.60;;;21.03;;
6394;SDS011;3230;42.588;23.358;2022-12-24T07:47:33;35.43;;;16.07;;
6394;SDS011;3230;42.588;23.358;2022-12-24T07:49:59;41.90;;;19.87;;
6394;SDS011;3230;42.588;23.358;2022-12-24T07:52:24;46.23;;;21.17;;
6394;SDS011;3230;42.588;23.358;2022-12-24T07:54:50;46.80;;;20.80;;
6394;SDS011;3230;42.588;23.358;2022-12-24T07:57:15;56.90;;;25.73;;
6394;SDS011;3230;42.588;23.358;2022-12-24T07:59:41;57.77;;;29.80;;
6394;SDS011;3230;42.588;23.358;2022-12-24T08:02:08;39.27;;;19.70;;
6394;SDS011;3230;42.588;23.358;2022-12-24T08:04:36;24.70;;;13.30;;
6394;SDS011;3230;42.588;23.358;2022-12-24T08:07:03;22.53;;;13.20;;
6394;SDS011;3230;42.588;23.358;2022-12-24T08:09:32;21.70;;;12.20;;
6394;SDS011;3230;42.588;23.358;2022-12-24T08:11:58;20.93;;;9.93;;
6394;SDS011;3230;42.588;23.358;2022-12-24T08:14:23;14.30;;;8.13;;
6394;SDS011;3230;42.588;23.358;2022-12-24T08:16:49;14.70;;;8.73;;
6394;SDS011;3230;42.588;23.358;2022-12-24T08:19:14;21.70;;;12.13;;
6394;SDS011;3230;42.588;23.358;2022-12-24T08:21:39;21.47;;;12.17;;
6394;SDS011;3230;42.588;23.358;2022-12-24T08:24:05;21.73;;;11.80;;
6394;SDS011;3230;42.588;23.358;2022-12-24T08:26:31;13.83;;;8.50;;
6394;SDS011;3230;42.588;23.358;2022-12-24T08:28:56;12.73;;;8.13;;
6394;SDS011;3230;42.588;23.358;2022-12-24T08:31:21;12.07;;;7.57;;
6394;SDS011;3230;42.588;23.358;2022-12-24T08:33:47;10.70;;;6.97;;
6394;SDS011;3230;42.588;23.358;2022-12-24T08:36:12;11.43;;;6.90;;
6394;SDS011;3230;42.588;23.358;2022-12-24T08:38:38;14.50;;;6.90;;
6394;SDS011;3230;42.588;23.358;2022-12-24T08:41:03;11.60;;;6.57;;
6394;SDS011;3230;42.588;23.358;2022-12-24T08:43:28;11.30;;;6.30;;
6394;SDS011;3230;42.588;23.358;2022-12-24T08:45:54;12.50;;;6.80;;
6394;SDS011;3230;42.588;23.358;2022-12-24T08:48:20;12.43;;;7.30;;
6394;SDS011;3230;42.588;23.358;2022-12-24T08:50:45;39.53;;;24.43;;
6394;SDS011;3230;42.588;23.358;2022-12-24T08:53:10;38.97;;;22.10;;
6394;SDS011;3230;42.588;23.358;2022-12-24T08:55:36;42.73;;;23.90;;
6394;SDS011;3230;42.588;23.358;2022-12-24T08:58:02;64.80;;;26.33;;
6394;SDS011;3230;42.588;23.358;2022-12-24T09:00:28;93.00;;;34.50;;
6394;SDS011;3230;42.588;23.358;2022-12-24T09:02:54;188.97;;;56.67;;
6394;SDS011;3230;42.588;23.358;2022-12-24T09:05:20;111.90;;;40.40;;
6394;SDS011;3230;42.588;23.358;2022-12-24T09:07:45;172.23;;;50.70;;
6394;SDS011;3230;42.588;23.358;2022-12-24T09:10:11;84.67;;;32.57;;
6394;SDS011;3230;42.588;23.358;2022-12-24T09:12:36;69.07;;;30.40;;
6394;SDS011;3230;42.588;23.358;2022-12-24T09:15:02;58.90;;;26.03;;
6394;SDS011;3230;42.588;23.358;2022-12-24T09:17:29;34.50;;;15.17;;
6394;SDS011;3230;42.588;23.358;2022-12-24T09:19:55;11.70;;;6.77;;
6394;SDS011;3230;42.588;23.358;2022-12-24T09:22:21;11.17;;;6.43;;
6394;SDS011;3230;42.588;23.358;2022-12-24T09:24:46;11.73;;;7.27;;
6394;SDS011;3230;42.588;23.358;2022-12-24T09:27:11;11.83;;;7.27;;
6394;SDS011;3230;42.588;23.358;2022-12-24T09:29:37;11.40;;;6.70;;
6394;SDS011;3230;42.588;23.358;2022-12-24T09:32:04;18.40;;;10.73;;
6394;SDS011;3230;42.588;23.358;2022-12-24T09:34:30;26.10;;;12.20;;
6394;SDS011;3230;42.588;23.358;2022-12-24T09:36:55;30.80;;;14.43;;
6394;SDS011;3230;42.588;23.358;2022-12-24T09:39:21;28.50;;;13.97;;
6394;SDS011;3230;42.588;23.358;2022-12-24T09:47:09;53.33;;;25.60;;
6394;SDS011;3230;42.588;23.358;2022-12-24T09:49:43;48.43;;;25.10;;
6394;SDS011;3230;42.588;23.358;2022-12-24T09:52:14;45.30;;;23.57;;
6394;SDS011;3230;42.588;23.358;2022-12-24T09:54:50;46.53;;;23.77;;
6394;SDS011;3230;42.588;23.358;2022-12-24T09:57:24;56.80;;;28.17;;
6394;SDS011;3230;42.588;23.358;2022-12-24T09:59:55;65.07;;;33.30;;
6394;SDS011;3230;42.588;23.358;2022-12-24T10:02:21;69.80;;;34.10;;
6394;SDS011;3230;42.588;23.358;2022-12-24T10:04:46;47.33;;;26.23;;
6394;SDS011;3230;42.588;23.358;2022-12-24T10:10:06;35.03;;;19.17;;
6394;SDS011;3230;42.588;23.358;2022-12-24T10:15:35;61.40;;;30.30;;
6394;SDS011;3230;42.588;23.358;2022-12-24T10:21:27;44.37;;;22.67;;
6394;SDS011;3230;42.588;23.358;2022-12-24T10:23:59;52.97;;;28.30;;
6394;SDS011;3230;42.588;23.358;2022-12-24T10:26:45;48.57;;;23.77;;
6394;SDS011;3230;42.588;23.358;2022-12-24T10:29:34;31.50;;;16.73;;
6394;SDS011;3230;42.588;23.358;2022-12-24T10:34:35;38.53;;;23.60;;
6394;SDS011;3230;42.588;23.358;2022-12-24T10:37:05;41.10;;;22.30;;
6394;SDS011;3230;42.588;23.358;2022-12-24T10:39:34;34.03;;;18.47;;
6394;SDS011;3230;42.588;23.358;2022-12-24T10:41:59;41.30;;;20.20;;
6394;SDS011;3230;42.588;23.358;2022-12-24T10:44:27;38.93;;;19.83;;
6394;SDS011;3230;42.588;23.358;2022-12-24T10:46:56;32.13;;;17.83;;
6394;SDS011;3230;42.588;23.358;2022-12-24T10:49:31;33.20;;;18.57;;
6394;SDS011;3230;42.588;23.358;2022-12-24T10:54:37;48.00;;;25.70;;
6394;SDS011;3230;42.588;23.358;2022-12-24T10:57:35;55.47;;;30.43;;
6394;SDS011;3230;42.588;23.358;2022-12-24T11:00:02;56.50;;;30.03;;
6394;SDS011;3230;42.588;23.358;2022-12-24T11:02:34;22.90;;;14.23;;
6394;SDS011;3230;42.588;23.358;2022-12-24T11:05:02;22.07;;;13.60;;
6394;SDS011;3230;42.588;23.358;2022-12-24T11:07:32;24.87;;;15.37;;
6394;SDS011;3230;42.588;23.358;2022-12-24T11:09:59;22.93;;;13.20;;
6394;SDS011;3230;42.588;23.358;2022-12-24T11:12:27;22.93;;;14.23;;
6394;SDS011;3230;42.588;23.358;2022-12-24T11:15:29;23.00;;;14.50;;
6394;SDS011;3230;42.588;23.358;2022-12-24T11:17:58;24.27;;;14.90;;
6394;SDS011;3230;42.588;23.358;2022-12-24T11:20:28;22.60;;;13.50;;
6394;SDS011;3230;42.588;23.358;2022-12-24T11:22:56;26.13;;;12.90;;
6394;SDS011;3230;42.588;23.358;2022-12-24T11:25:26;21.80;;;12.80;;
6394;SDS011;3230;42.588;23.358;2022-12-24T11:27:55;19.20;;;11.00;;
6394;SDS011;3230;42.588;23.358;2022-12-24T11:30:34;28.07;;;14.90;;
6394;SDS011;3230;42.588;23.358;2022-12-24T11:35:26;22.53;;;11.87;;
6394;SDS011;3230;42.588;23.358;2022-12-24T11:40:24;20.83;;;11.27;;
6394;SDS011;3230;42.588;23.358;2022-12-24T11:43:01;26.30;;;14.10;;
6394;SDS011;3230;42.588;23.358;2022-12-24T11:45:29;26.83;;;15.67;;
6394;SDS011;3230;42.588;23.358;2022-12-24T11:47:56;27.97;;;15.30;;
6394;SDS011;3230;42.588;23.358;2022-12-24T11:52:55;19.10;;;11.17;;
6394;SDS011;3230;42.588;23.358;2022-12-24T11:58:17;16.47;;;8.57;;
6394;SDS011;3230;42.588;23.358;2022-12-24T12:00:44;17.43;;;8.97;;
6394;SDS011;3230;42.588;23.358;2022-12-24T12:03:19;24.17;;;11.03;;
6394;SDS011;3230;42.588;23.358;2022-12-24T12:05:54;20.73;;;10.87;;
6394;SDS011;3230;42.588;23.358;2022-12-24T12:08:20;20.70;;;10.50;;
6394;SDS011;3230;42.588;23.358;2022-12-24T12:10:48;14.70;;;9.17;;
6394;SDS011;3230;42.588;23.358;2022-12-24T12:13:17;16.77;;;9.90;;
6394;SDS011;3230;42.588;23.358;2022-12-24T12:15:48;18.10;;;9.90;;
6394;SDS011;3230;42.588;23.358;2022-12-24T12:18:22;19.70;;;10.40;;
6394;SDS011;3230;42.588;23.358;2022-12-24T12:20:57;20.17;;;11.40;;
6394;SDS011;3230;42.588;23.358;2022-12-24T12:23:29;27.40;;;16.20;;
6394;SDS011;3230;42.588;23.358;2022-12-24T12:25:59;29.90;;;16.40;;
6394;SDS011;3230;42.588;23.358;2022-12-24T12:31:14;34.97;;;18.50;;
6394;SDS011;3230;42.588;23.358;2022-12-24T12:36:42;35.53;;;18.63;;
6394;SDS011;3230;42.588;23.358;2022-12-24T12:39:17;30.90;;;16.70;;
6394;SDS011;3230;42.588;23.358;2022-12-24T12:44:24;35.63;;;16.00;;
6394;SDS011;3230;42.588;23.358;2022-12-24T12:58:02;24.77;;;12.83;;
6394;SDS011;3230;42.588;23.358;2022-12-24T13:00:34;25.77;;;14.43;;
6394;SDS011;3230;42.588;23.358;2022-12-24T13:10:48;47.53;;;26.30;;
6394;SDS011;3230;42.588;23.358;2022-12-24T13:21:59;54.57;;;28.57;;
6394;SDS011;3230;42.588;23.358;2022-12-24T13:24:29;55.87;;;27.77;;
6394;SDS011;3230;42.588;23.358;2022-12-24T13:37:32;73.90;;;36.73;;
6394;SDS011;3230;42.588;23.358;2022-12-24T13:42:46;69.37;;;36.37;;
6394;SDS011;3230;42.588;23.358;2022-12-24T13:47:53;48.00;;;25.90;;
6394;SDS011;3230;42.588;23.358;2022-12-24T13:50:28;50.77;;;25.40;;
6394;SDS011;3230;42.588;23.358;2022-12-24T13:53:01;44.80;;;23.13;;
6394;SDS011;3230;42.588;23.358;2022-12-24T13:55:28;36.93;;;20.97;;
6394;SDS011;3230;42.588;23.358;2022-12-24T13:57:58;29.67;;;15.67;;
6394;SDS011;3230;42.588;23.358;2022-12-24T14:00:34;69.80;;;34.40;;
6394;SDS011;3230;42.588;23.358;2022-12-24T14:11:02;5.47;;;3.67;;
6394;SDS011;3230;42.588;23.358;2022-12-24T14:16:03;13.07;;;6.77;;
6394;SDS011;3230;42.588;23.358;2022-12-24T14:18:42;16.97;;;6.17;;
6394;SDS011;3230;42.588;23.358;2022-12-24T14:21:56;16.60;;;9.87;;
6394;SDS011;3230;42.588;23.358;2022-12-24T14:24:19;16.97;;;10.03;;
6394;SDS011;3230;42.588;23.358;2022-12-24T14:26:59;14.87;;;9.13;;
6394;SDS011;3230;42.588;23.358;2022-12-24T14:29:33;15.30;;;9.30;;
6394;SDS011;3230;42.588;23.358;2022-12-24T14:32:07;15.87;;;9.37;;
6394;SDS011;3230;42.588;23.358;2022-12-24T14:34:38;18.50;;;11.50;;
6394;SDS011;3230;42.588;23.358;2022-12-24T14:37:03;13.70;;;9.27;;
6394;SDS011;3230;42.588;23.358;2022-12-24T14:39:36;17.50;;;9.00;;
6394;SDS011;3230;42.588;23.358;2022-12-24T14:42:12;9.10;;;5.50;;
6394;SDS011;3230;42.588;23.358;2022-12-24T14:47:50;8.40;;;5.33;;
6394;SDS011;3230;42.588;23.358;2022-12-24T14:50:23;5.80;;;3.53;;
6394;SDS011;3230;42.588;23.358;2022-12-24T14:55:37;5.70;;;3.90;;
6394;SDS011;3230;42.588;23.358;2022-12-24T14:58:25;4.43;;;3.57;;
6394;SDS011;3230;42.588;23.358;2022-12-24T15:00:52;6.90;;;4.27;;
6394;SDS011;3230;42.588;23.358;2022-12-24T15:03:21;8.80;;;5.00;;
6394;SDS011;3230;42.588;23.358;2022-12-24T15:05:52;7.50;;;5.03;;
6394;SDS011;3230;42.588;23.358;2022-12-24T15:08:31;8.77;;;5.43;;
6394;SDS011;3230;42.588;23.358;2022-12-24T15:11:02;9.30;;;5.20;;
6394;SDS011;3230;42.588;23.358;2022-12-24T15:13:35;15.20;;;7.07;;
6394;SDS011;3230;42.588;23.358;2022-12-24T15:16:10;10.70;;;5.67;;
6394;SDS011;3230;42.588;23.358;2022-12-24T15:18:42;13.40;;;7.60;;
6394;SDS011;3230;42.588;23.358;2022-12-24T15:21:14;8.53;;;6.40;;
6394;SDS011;3230;42.588;23.358;2022-12-24T15:23:52;10.40;;;6.57;;
6394;SDS011;3230;42.588;23.358;2022-12-24T15:28:59;8.43;;;5.60;;
6394;SDS011;3230;42.588;23.358;2022-12-24T15:31:26;15.00;;;8.17;;
6394;SDS011;3230;42.588;23.358;2022-12-24T15:33:53;11.37;;;6.67;;
6394;SDS011;3230;42.588;23.358;2022-12-24T15:36:27;10.10;;;6.70;;
6394;SDS011;3230;42.588;23.358;2022-12-24T15:38:59;13.50;;;8.63;;
6394;SDS011;3230;42.588;23.358;2022-12-24T15:41:29;18.00;;;8.30;;
6394;SDS011;3230;42.588;23.358;2022-12-24T15:44:02;10.10;;;7.07;;
6394;SDS011;3230;42.588;23.358;2022-12-24T15:46:28;15.43;;;8.60;;
6394;SDS011;3230;42.588;23.358;2022-12-24T15:48:56;12.80;;;6.60;;
6394;SDS011;3230;42.588;23.358;2022-12-24T15:51:31;13.63;;;8.13;;
6394;SDS011;3230;42.588;23.358;2022-12-24T15:54:05;43.10;;;22.87;;
6394;SDS011;3230;42.588;23.358;2022-12-24T15:56:38;34.23;;;18.93;;
6394;SDS011;3230;42.588;23.358;2022-12-24T16:01:40;45.97;;;24.40;;
6394;SDS011;3230;42.588;23.358;2022-12-24T16:04:14;42.80;;;21.63;;
6394;SDS011;3230;42.588;23.358;2022-12-24T16:06:51;35.90;;;18.37;;
6394;SDS011;3230;42.588;23.358;2022-12-24T16:12:17;30.00;;;15.90;;
6394;SDS011;3230;42.588;23.358;2022-12-24T16:14:55;30.93;;;16.40;;
6394;SDS011;3230;42.588;23.358;2022-12-24T16:17:25;27.43;;;14.90;;
6394;SDS011;3230;42.588;23.358;2022-12-24T16:19:53;34.03;;;18.10;;
6394;SDS011;3230;42.588;23.358;2022-12-24T16:22:22;44.70;;;23.10;;
6394;SDS011;3230;42.588;23.358;2022-12-24T16:24:59;63.33;;;31.30;;
6394;SDS011;3230;42.588;23.358;2022-12-24T16:27:45;67.23;;;31.77;;
6394;SDS011;3230;42.588;23.358;2022-12-24T16:30:11;56.37;;;28.20;;
6394;SDS011;3230;42.588;23.358;2022-12-24T16:32:36;38.20;;;18.57;;
6394;SDS011;3230;42.588;23.358;2022-12-24T16:35:05;45.67;;;23.93;;
6394;SDS011;3230;42.588;23.358;2022-12-24T16:37:32;52.70;;;24.60;;
6394;SDS011;3230;42.588;23.358;2022-12-24T16:39:58;45.37;;;24.93;;
6394;SDS011;3230;42.588;23.358;2022-12-24T16:42:24;40.73;;;23.30;;
6394;SDS011;3230;42.588;23.358;2022-12-24T16:45:08;48.50;;;24.30;;
6394;SDS011;3230;42.588;23.358;2022-12-24T16:47:34;41.20;;;21.27;;
6394;SDS011;3230;42.588;23.358;2022-12-24T16:50:01;39.90;;;21.40;;
6394;SDS011;3230;42.588;23.358;2022-12-24T16:52:31;20.17;;;10.93;;
6394;SDS011;3230;42.588;23.358;2022-12-24T16:54:59;17.00;;;10.70;;
6394;SDS011;3230;42.588;23.358;2022-12-24T16:57:25;12.53;;;6.97;;
6394;SDS011;3230;42.588;23.358;2022-12-24T16:59:51;12.73;;;6.20;;
6394;SDS011;3230;42.588;23.358;2022-12-24T17:02:18;6.50;;;4.10;;
6394;SDS011;3230;42.588;23.358;2022-12-24T17:04:45;4.40;;;3.45;;
6394;SDS011;3230;42.588;23.358;2022-12-24T17:07:12;3.50;;;2.80;;
6394;SDS011;3230;42.588;23.358;2022-12-24T17:09:39;4.37;;;3.17;;
6394;SDS011;3230;42.588;23.358;2022-12-24T17:12:05;3.03;;;2.47;;
6394;SDS011;3230;42.588;23.358;2022-12-24T17:14:30;4.40;;;3.17;;
6394;SDS011;3230;42.588;23.358;2022-12-24T17:16:56;8.07;;;5.40;;
6394;SDS011;3230;42.588;23.358;2022-12-24T17:19:21;6.07;;;4.27;;